Time;durP1;ratioP1;P1;durP2;ratioP2;P2;SDS_P1;SDS_P2;PMS_P1;PMS_P2;Temp;Humidity;BMP_temperature;BMP_pressure;BME280_temperature;BME280_humidity;BME280_pressure;Samples;Min_cycle;Max_cycle;Signal;HPM_P1;HPM_P2
2022/11/19 00:00:53;;;;;;;;;;;6.40;99.90;;;;;;5056842;28;19967;-82
2022/11/19 00:03:27;;;;;;;;;;;6.40;99.90;;;;;;5059636;28;19928;-81
2022/11/19 00:06:22;;;;;;;;;;;6.50;99.90;;;;;;5053668;28;19924;-81
2022/11/19 00:09:22;;;;;;;;;;;6.40;99.90;;;;;;5063732;28;19940;-81
2022/11/19 00:15:12;;;;;;;;;;;6.30;99.90;;;;;;5062717;28;19935;-80
2022/11/19 00:17:41;;;;;;;;;;;6.30;99.90;;;;;;5063672;28;19978;-80
2022/11/19 00:20:16;;;;;;;;;;;6.30;99.90;;;;;;5047355;28;19928;-81
2022/11/19 00:22:54;;;;;;;;;;;6.30;99.90;;;;;;5056468;28;19986;-82
2022/11/19 00:25:44;;;;;;;;;;;6.20;99.90;;;;;;5058596;28;20589;-80
2022/11/19 00:28:16;;;;;;;;;;;6.20;99.90;;;;;;5057689;28;19974;-80
2022/11/19 00:30:58;;;;;;;;;;;6.20;99.90;;;;;;5058425;28;19943;-82
2022/11/19 00:33:59;;;;;;;;;;;6.20;99.90;;;;;;5058425;28;19932;-82
2022/11/19 00:36:32;;;;;;;;;;;6.20;99.90;;;;;;5046441;28;19924;-82
2022/11/19 00:39:20;;;;;;;;;;;6.10;99.90;;;;;;5060416;28;19924;-83
2022/11/19 00:41:58;;;;;;;;;;;6.00;99.90;;;;;;5059431;28;19959;-81
2022/11/19 00:44:27;;;;;;;;;;;5.90;99.90;;;;;;5072462;28;20012;-82
2022/11/19 00:47:06;;;;;;;;;;;5.80;99.90;;;;;;5062673;28;19935;-80
2022/11/19 00:49:41;;;;;;;;;;;5.80;99.90;;;;;;5070439;28;20016;-81
2022/11/19 00:52:19;;;;;;;;;;;5.70;99.90;;;;;;5057375;28;22131;-82
2022/11/19 00:54:51;;;;;;;;;;;5.70;99.90;;;;;;5064837;28;19969;-81
2022/11/19 00:57:28;;;;;;;;;;;5.70;99.90;;;;;;5053455;28;19931;-81
2022/11/19 01:00:01;;;;;;;;;;;5.70;99.90;;;;;;5048869;28;19979;-81
2022/11/19 01:02:33;;;;;;;;;;;5.70;99.90;;;;;;5065584;28;19924;-79
2022/11/19 01:05:10;;;;;;;;;;;5.50;99.90;;;;;;5071149;28;19932;-80
2022/11/19 01:07:41;;;;;;;;;;;5.50;99.90;;;;;;5061797;28;20441;-81
2022/11/19 01:10:16;;;;;;;;;;;5.50;99.90;;;;;;5045088;28;20388;-80
2022/11/19 01:15:40;;;;;;;;;;;5.50;99.90;;;;;;5056425;28;20591;-81
2022/11/19 01:18:10;;;;;;;;;;;5.50;99.90;;;;;;5058846;28;19928;-81
2022/11/19 01:20:48;;;;;;;;;;;5.50;99.90;;;;;;5050366;28;20023;-82
2022/11/19 01:23:39;;;;;;;;;;;5.50;99.90;;;;;;5052171;28;19929;-81
2022/11/19 01:26:11;;;;;;;;;;;5.50;99.90;;;;;;5049936;28;19948;-80
2022/11/19 01:28:50;;;;;;;;;;;5.50;99.90;;;;;;5055277;28;20019;-81
2022/11/19 01:31:24;;;;;;;;;;;5.50;99.90;;;;;;5060546;28;19933;-80
2022/11/19 01:33:55;;;;;;;;;;;5.50;99.90;;;;;;5056638;28;20054;-80
2022/11/19 01:36:26;;;;;;;;;;;5.50;99.90;;;;;;5055058;28;20376;-80
2022/11/19 01:38:58;;;;;;;;;;;5.50;99.90;;;;;;5054745;28;19999;-78
2022/11/19 01:41:35;;;;;;;;;;;5.50;99.90;;;;;;5054790;28;19925;-80
2022/11/19 01:44:09;;;;;;;;;;;5.40;99.90;;;;;;5052056;28;20561;-81
2022/11/19 01:46:42;;;;;;;;;;;5.30;99.90;;;;;;5059907;28;19936;-82
2022/11/19 01:49:19;;;;;;;;;;;5.30;99.90;;;;;;5046831;28;20076;-82
2022/11/19 01:51:53;;;;;;;;;;;5.30;99.90;;;;;;5053327;28;19928;-82
2022/11/19 01:54:35;;;;;;;;;;;5.20;99.90;;;;;;5060523;28;19956;-78
2022/11/19 01:57:04;;;;;;;;;;;5.20;99.90;;;;;;5056814;28;19964;-81
2022/11/19 01:59:31;;;;;;;;;;;5.20;99.90;;;;;;5071047;28;19928;-81
2022/11/19 02:01:58;;;;;;;;;;;5.20;99.90;;;;;;5075321;28;20006;-81
2022/11/19 02:04:26;;;;;;;;;;;5.20;99.90;;;;;;5060369;28;20022;-81
2022/11/19 02:06:54;;;;;;;;;;;5.10;99.90;;;;;;5063845;28;19929;-81
2022/11/19 02:09:22;;;;;;;;;;;5.10;99.90;;;;;;5061835;28;19971;-81
2022/11/19 02:12:02;;;;;;;;;;;5.10;99.90;;;;;;5047757;28;19937;-81
2022/11/19 02:14:37;;;;;;;;;;;5.00;99.90;;;;;;5045194;28;20016;-82
2022/11/19 02:17:11;;;;;;;;;;;5.00;99.90;;;;;;5054794;28;19929;-82
2022/11/19 02:19:56;;;;;;;;;;;4.90;99.90;;;;;;5047978;28;19951;-84
2022/11/19 02:22:36;;;;;;;;;;;5.00;99.90;;;;;;5047774;28;19929;-83
2022/11/19 02:25:11;;;;;;;;;;;5.00;99.90;;;;;;5054672;28;20426;-83
2022/11/19 02:28:03;;;;;;;;;;;5.00;99.90;;;;;;5064291;28;19928;-83
2022/11/19 02:30:34;;;;;;;;;;;5.00;99.90;;;;;;5055098;28;19964;-84
2022/11/19 02:33:05;;;;;;;;;;;5.00;99.90;;;;;;5052448;28;19994;-81
2022/11/19 02:35:40;;;;;;;;;;;4.90;99.90;;;;;;5055191;28;20350;-80
2022/11/19 02:38:12;;;;;;;;;;;4.90;99.90;;;;;;5054734;28;19932;-82
2022/11/19 02:40:40;;;;;;;;;;;4.90;99.90;;;;;;5061138;28;19970;-81
2022/11/19 02:43:10;;;;;;;;;;;4.90;99.90;;;;;;5067465;28;19936;-81
2022/11/19 02:45:41;;;;;;;;;;;4.90;99.90;;;;;;5060960;28;19950;-81
2022/11/19 02:48:10;;;;;;;;;;;4.80;99.90;;;;;;5051465;28;19936;-82
2022/11/19 02:50:39;;;;;;;;;;;4.70;99.90;;;;;;5056606;28;20303;-82
2022/11/19 02:53:06;;;;;;;;;;;4.80;99.90;;;;;;5054760;28;20016;-81
2022/11/19 02:55:35;;;;;;;;;;;4.80;99.90;;;;;;5052241;28;19948;-81
2022/11/19 02:58:06;;;;;;;;;;;4.70;99.90;;;;;;5053139;28;20437;-81
2022/11/19 03:06:16;;;;;;;;;;;4.50;99.90;;;;;;5056209;28;19935;-80
2022/11/19 03:08:43;;;;;;;;;;;4.60;99.90;;;;;;5063845;28;20453;-81
2022/11/19 03:11:15;;;;;;;;;;;4.60;99.90;;;;;;5059360;28;19932;-80
2022/11/19 03:16:49;;;;;;;;;;;4.50;99.90;;;;;;5048776;28;19925;-81
2022/11/19 03:19:29;;;;;;;;;;;4.50;99.90;;;;;;5059397;28;20069;-81
2022/11/19 03:21:58;;;;;;;;;;;4.50;99.90;;;;;;5056792;28;20006;-79
2022/11/19 03:24:28;;;;;;;;;;;4.50;99.90;;;;;;5056652;28;19929;-80
2022/11/19 03:26:57;;;;;;;;;;;4.50;99.90;;;;;;5055520;28;19928;-85
2022/11/19 03:29:26;;;;;;;;;;;4.50;99.90;;;;;;5060483;28;19932;-83
2022/11/19 03:31:56;;;;;;;;;;;4.50;99.90;;;;;;5056892;28;20421;-85
2022/11/19 03:34:23;;;;;;;;;;;4.50;99.90;;;;;;5068522;28;19929;-84
2022/11/19 03:36:53;;;;;;;;;;;4.50;99.90;;;;;;5063848;28;20384;-82
2022/11/19 03:39:21;;;;;;;;;;;4.50;99.90;;;;;;5065550;28;19973;-83
2022/11/19 03:41:49;;;;;;;;;;;4.50;99.90;;;;;;5075361;28;20403;-82
2022/11/19 03:44:17;;;;;;;;;;;3.40;99.90;;;;;;5058099;28;20553;-83
2022/11/19 03:46:46;;;;;;;;;;;4.30;99.90;;;;;;5061363;28;19995;-82
2022/11/19 03:49:14;;;;;;;;;;;4.30;99.90;;;;;;5052993;28;19925;-82
2022/11/19 03:51:44;;;;;;;;;;;4.20;99.90;;;;;;5073980;28;19932;-84
2022/11/19 03:54:12;;;;;;;;;;;4.20;99.90;;;;;;5059903;28;19928;-85
2022/11/19 03:56:40;;;;;;;;;;;4.20;99.90;;;;;;5057775;28;19925;-85
2022/11/19 03:59:09;;;;;;;;;;;4.20;99.90;;;;;;5066078;28;19947;-83
2022/11/19 04:01:36;;;;;;;;;;;4.30;99.90;;;;;;5062897;28;20020;-84
2022/11/19 04:06:47;;;;;;;;;;;4.30;99.90;;;;;;5056900;28;19924;-84
2022/11/19 04:09:16;;;;;;;;;;;4.30;99.90;;;;;;5056373;28;19929;-84
2022/11/19 04:11:43;;;;;;;;;;;4.30;99.90;;;;;;5061259;28;19978;-84
2022/11/19 04:14:10;;;;;;;;;;;4.20;99.90;;;;;;5050831;28;19937;-83
2022/11/19 04:16:37;;;;;;;;;;;4.20;99.90;;;;;;5055517;28;19975;-84
2022/11/19 04:19:04;;;;;;;;;;;4.20;99.90;;;;;;5042686;28;20024;-84
2022/11/19 04:21:31;;;;;;;;;;;4.30;99.90;;;;;;5059446;28;20396;-84
2022/11/19 04:23:58;;;;;;;;;;;4.30;99.90;;;;;;5051971;28;19924;-84
2022/11/19 04:26:26;;;;;;;;;;;4.20;99.90;;;;;;5054608;28;19928;-84
2022/11/19 04:28:53;;;;;;;;;;;4.20;99.90;;;;;;5053471;28;19929;-83
2022/11/19 04:31:20;;;;;;;;;;;4.20;99.90;;;;;;5058592;28;19925;-84
2022/11/19 04:33:47;;;;;;;;;;;4.30;99.90;;;;;;5053587;28;19990;-84
2022/11/19 04:36:14;;;;;;;;;;;4.20;99.90;;;;;;5058879;28;19928;-85
2022/11/19 04:38:40;;;;;;;;;;;4.20;99.90;;;;;;5059833;28;19924;-84
2022/11/19 04:41:08;;;;;;;;;;;4.30;99.90;;;;;;5063831;28;20329;-85
2022/11/19 04:43:36;;;;;;;;;;;4.20;99.90;;;;;;5052302;28;19971;-83
2022/11/19 04:46:03;;;;;;;;;;;4.10;99.90;;;;;;5058136;28;19978;-83
2022/11/19 04:48:30;;;;;;;;;;;4.10;99.90;;;;;;5052798;28;19947;-84
2022/11/19 04:50:57;;;;;;;;;;;4.00;99.90;;;;;;5070417;28;19929;-84
2022/11/19 04:53:24;;;;;;;;;;;4.00;99.90;;;;;;5070998;28;19936;-85
2022/11/19 04:55:51;;;;;;;;;;;4.00;99.90;;;;;;5057583;28;19925;-84
2022/11/19 04:58:17;;;;;;;;;;;4.00;99.90;;;;;;5060020;28;20366;-85
2022/11/19 05:00:47;;;;;;;;;;;4.00;99.90;;;;;;5071250;28;20390;-83
2022/11/19 05:03:14;;;;;;;;;;;3.90;99.90;;;;;;5060679;28;19940;-84
2022/11/19 05:05:41;;;;;;;;;;;3.80;99.90;;;;;;5056532;28;19946;-83
2022/11/19 05:08:08;;;;;;;;;;;5.70;99.90;;;;;;5059638;28;19954;-84
2022/11/19 05:10:35;;;;;;;;;;;3.80;99.90;;;;;;5068815;28;19924;-84
2022/11/19 05:13:02;;;;;;;;;;;3.80;99.90;;;;;;5057393;28;19939;-85
2022/11/19 05:15:28;;;;;;;;;;;3.80;99.90;;;;;;5049898;28;19940;-85
2022/11/19 05:17:57;;;;;;;;;;;3.90;99.90;;;;;;5048764;28;20482;-86
2022/11/19 05:20:24;;;;;;;;;;;3.80;99.90;;;;;;5047826;28;19925;-86
2022/11/19 05:22:52;;;;;;;;;;;3.80;99.90;;;;;;5060839;28;19936;-84
2022/11/19 05:25:20;;;;;;;;;;;3.80;99.90;;;;;;5050024;28;20555;-83
2022/11/19 05:27:47;;;;;;;;;;;3.90;99.90;;;;;;5056203;28;19925;-87
2022/11/19 05:30:15;;;;;;;;;;;3.90;99.90;;;;;;5062640;28;20407;-85
2022/11/19 05:32:42;;;;;;;;;;;3.90;99.90;;;;;;5064311;28;20016;-85
2022/11/19 05:35:10;;;;;;;;;;;3.90;99.90;;;;;;5050545;28;19947;-85
2022/11/19 05:37:37;;;;;;;;;;;3.90;99.90;;;;;;5056948;28;19928;-87
2022/11/19 05:40:05;;;;;;;;;;;3.90;99.90;;;;;;5061693;28;19996;-85
2022/11/19 05:42:32;;;;;;;;;;;3.90;99.90;;;;;;5051231;28;19948;-82
2022/11/19 05:44:59;;;;;;;;;;;4.00;99.90;;;;;;5047054;28;20373;-84
2022/11/19 05:47:26;;;;;;;;;;;3.90;99.90;;;;;;5050763;28;19936;-84
2022/11/19 05:49:53;;;;;;;;;;;3.90;99.90;;;;;;5049832;28;19929;-83
2022/11/19 05:52:22;;;;;;;;;;;3.80;99.90;;;;;;5060975;28;19937;-82
2022/11/19 05:54:49;;;;;;;;;;;3.70;99.90;;;;;;5058274;28;19994;-83
2022/11/19 05:57:16;;;;;;;;;;;3.70;99.90;;;;;;5057061;28;19936;-83
2022/11/19 05:59:43;;;;;;;;;;;3.70;99.90;;;;;;5055270;28;19951;-83
2022/11/19 06:02:09;;;;;;;;;;;3.70;99.90;;;;;;5065241;28;19959;-83
2022/11/19 06:04:36;;;;;;;;;;;3.70;99.90;;;;;;5057330;28;19933;-83
2022/11/19 06:07:03;;;;;;;;;;;3.70;99.90;;;;;;5059984;28;19944;-84
2022/11/19 06:09:35;;;;;;;;;;;3.60;99.90;;;;;;5056924;28;19928;-83
2022/11/19 06:12:02;;;;;;;;;;;3.60;99.90;;;;;;5058414;28;20019;-83
2022/11/19 06:14:29;;;;;;;;;;;3.60;99.90;;;;;;5054100;28;20030;-83
2022/11/19 06:16:57;;;;;;;;;;;3.70;99.90;;;;;;5053399;28;20022;-84
2022/11/19 06:19:25;;;;;;;;;;;3.70;99.90;;;;;;5048817;28;20285;-83
2022/11/19 06:21:53;;;;;;;;;;;3.70;99.90;;;;;;5063658;28;19925;-83
2022/11/19 06:24:20;;;;;;;;;;;3.70;99.90;;;;;;5061354;28;19932;-83
2022/11/19 06:26:49;;;;;;;;;;;3.70;99.90;;;;;;5078417;28;20011;-83
2022/11/19 06:29:16;;;;;;;;;;;3.70;99.90;;;;;;5072501;28;19936;-83
2022/11/19 06:31:43;;;;;;;;;;;3.80;99.90;;;;;;5058350;28;20388;-82
2022/11/19 06:34:11;;;;;;;;;;;3.80;99.90;;;;;;5059372;28;19937;-83
2022/11/19 06:36:37;;;;;;;;;;;3.70;99.90;;;;;;5060708;28;19935;-83
2022/11/19 06:39:04;;;;;;;;;;;3.70;99.90;;;;;;5058814;28;19979;-84
2022/11/19 06:41:31;;;;;;;;;;;3.70;99.90;;;;;;5058040;28;19925;-84
2022/11/19 06:44:00;;;;;;;;;;;3.60;99.90;;;;;;5055615;28;19925;-83
2022/11/19 06:46:27;;;;;;;;;;;3.50;99.90;;;;;;5054722;28;19925;-82
2022/11/19 06:48:54;;;;;;;;;;;3.40;99.90;;;;;;5060840;28;19938;-82
2022/11/19 06:51:21;;;;;;;;;;;3.40;99.90;;;;;;5075155;28;19978;-85
2022/11/19 06:53:48;;;;;;;;;;;3.40;99.90;;;;;;5066157;28;19934;-81
2022/11/19 06:56:15;;;;;;;;;;;3.30;99.90;;;;;;5066967;28;19928;-81
2022/11/19 06:58:42;;;;;;;;;;;3.30;99.90;;;;;;5067926;28;19987;-84
2022/11/19 07:01:14;;;;;;;;;;;3.40;99.90;;;;;;5059449;28;19939;-82
2022/11/19 07:03:41;;;;;;;;;;;3.50;99.90;;;;;;5058726;28;19931;-82
2022/11/19 07:06:08;;;;;;;;;;;3.40;99.90;;;;;;5067873;28;19929;-83
2022/11/19 07:08:36;;;;;;;;;;;3.40;99.90;;;;;;5054368;28;19964;-83
2022/11/19 07:11:24;;;;;;;;;;;3.40;99.90;;;;;;5064263;28;20057;-83
2022/11/19 07:13:58;;;;;;;;;;;3.40;99.90;;;;;;5058068;28;19928;-79
2022/11/19 07:16:33;;;;;;;;;;;3.40;99.90;;;;;;5038655;28;19929;-80
2022/11/19 07:19:01;;;;;;;;;;;3.40;99.90;;;;;;5047896;28;20335;-80
2022/11/19 07:21:28;;;;;;;;;;;3.40;99.90;;;;;;5047883;28;19931;-82
2022/11/19 07:23:56;;;;;;;;;;;3.40;99.90;;;;;;5065310;28;19967;-81
2022/11/19 07:26:26;;;;;;;;;;;3.40;99.90;;;;;;5061910;28;19951;-81
2022/11/19 07:28:54;;;;;;;;;;;3.40;99.90;;;;;;5060230;28;19929;-82
2022/11/19 07:31:21;;;;;;;;;;;3.40;99.90;;;;;;5056864;28;19928;-82
2022/11/19 07:33:49;;;;;;;;;;;3.40;99.90;;;;;;5061132;28;19928;-82
2022/11/19 07:36:17;;;;;;;;;;;3.50;99.90;;;;;;5064624;28;19935;-80
2022/11/19 07:38:45;;;;;;;;;;;3.50;99.90;;;;;;5052047;28;19928;-79
2022/11/19 07:43:53;;;;;;;;;;;3.60;99.90;;;;;;5054450;28;19960;-80
2022/11/19 07:46:20;;;;;;;;;;;3.60;99.90;;;;;;5060040;28;19991;-79
2022/11/19 07:48:51;;;;;;;;;;;3.60;99.90;;;;;;5055444;28;20451;-82
2022/11/19 07:51:18;;;;;;;;;;;3.70;99.90;;;;;;5054468;28;19933;-81
2022/11/19 07:53:45;;;;;;;;;;;3.70;99.90;;;;;;5048243;28;19955;-81
2022/11/19 07:56:12;;;;;;;;;;;3.60;99.90;;;;;;5037739;28;19925;-83
2022/11/19 07:58:39;;;;;;;;;;;3.70;99.90;;;;;;5050579;28;19929;-80
2022/11/19 08:01:09;;;;;;;;;;;3.70;99.90;;;;;;5063870;28;19935;-81
2022/11/19 08:03:37;;;;;;;;;;;3.70;99.90;;;;;;5050301;28;20017;-83
2022/11/19 08:06:06;;;;;;;;;;;3.80;99.90;;;;;;5055925;28;19928;-81
2022/11/19 08:08:33;;;;;;;;;;;3.70;99.90;;;;;;5064929;28;20300;-83
2022/11/19 08:11:03;;;;;;;;;;;3.70;99.90;;;;;;5048656;28;19925;-83
2022/11/19 08:13:32;;;;;;;;;;;3.60;99.90;;;;;;5061397;28;20002;-81
2022/11/19 08:19:02;;;;;;;;;;;3.60;99.90;;;;;;5061481;28;19947;-82
2022/11/19 08:21:33;;;;;;;;;;;3.80;99.90;;;;;;5053324;28;19932;-84
2022/11/19 08:24:03;;;;;;;;;;;4.50;99.90;;;;;;5062039;28;20341;-82
2022/11/19 08:26:30;;;;;;;;;;;3.90;99.90;;;;;;5053488;28;19944;-82
2022/11/19 08:28:57;;;;;;;;;;;3.90;99.90;;;;;;5062960;28;19962;-83
2022/11/19 08:31:25;;;;;;;;;;;3.90;99.90;;;;;;5055378;28;19929;-82
2022/11/19 08:33:52;;;;;;;;;;;3.80;99.90;;;;;;5056152;28;19933;-82
2022/11/19 08:36:19;;;;;;;;;;;3.80;99.90;;;;;;5053740;28;20018;-81
2022/11/19 08:38:48;;;;;;;;;;;3.80;99.90;;;;;;5074275;28;19924;-80
2022/11/19 08:44:05;;;;;;;;;;;3.90;99.90;;;;;;5053118;28;19924;-81
2022/11/19 08:46:32;;;;;;;;;;;3.80;99.90;;;;;;5051245;28;20257;-80
2022/11/19 08:48:59;;;;;;;;;;;3.80;99.90;;;;;;5046057;28;19993;-80
2022/11/19 08:51:26;;;;;;;;;;;3.90;99.90;;;;;;5054591;28;20361;-81
2022/11/19 08:57:24;;;;;;;;;;;3.80;99.90;;;;;;5046186;28;19928;-77
2022/11/19 08:59:55;;;;;;;;;;;3.80;99.90;;;;;;5045925;28;19936;-77
2022/11/19 09:02:29;;;;;;;;;;;3.70;99.90;;;;;;5053856;28;20011;-77
2022/11/19 09:05:04;;;;;;;;;;;3.70;99.90;;;;;;5038570;28;19929;-75
2022/11/19 09:07:35;;;;;;;;;;;3.70;99.90;;;;;;5060214;28;19925;-75
2022/11/19 09:10:02;;;;;;;;;;;3.70;99.90;;;;;;5048341;28;20377;-75
2022/11/19 09:12:30;;;;;;;;;;;3.70;99.90;;;;;;5057305;28;19962;-76
2022/11/19 09:15:01;;;;;;;;;;;3.70;99.90;;;;;;5051108;28;20016;-79
2022/11/19 09:17:38;;;;;;;;;;;3.60;99.90;;;;;;5055536;28;19986;-77
2022/11/19 09:20:06;;;;;;;;;;;3.60;99.90;;;;;;5040935;28;19963;-75
2022/11/19 09:22:34;;;;;;;;;;;3.50;99.90;;;;;;5044422;28;19928;-77
2022/11/19 09:25:02;;;;;;;;;;;3.30;99.90;;;;;;5039025;28;20269;-76
2022/11/19 09:27:34;;;;;;;;;;;2.90;99.90;;;;;;5039908;28;19937;-75
2022/11/19 09:30:01;;;;;;;;;;;2.90;99.90;;;;;;5051436;28;19932;-77
2022/11/19 09:32:31;;;;;;;;;;;2.70;99.90;;;;;;5046985;28;19956;-76
2022/11/19 09:34:58;;;;;;;;;;;2.60;99.90;;;;;;5041964;28;19979;-78
2022/11/19 09:37:30;;;;;;;;;;;2.50;99.90;;;;;;5052279;28;19987;-77
2022/11/19 09:39:57;;;;;;;;;;;2.60;99.90;;;;;;5043762;28;19925;-76
2022/11/19 09:42:29;;;;;;;;;;;2.60;99.90;;;;;;5034876;28;19932;-76
2022/11/19 09:45:07;;;;;;;;;;;2.60;99.90;;;;;;5055638;28;20005;-77
2022/11/19 09:47:40;;;;;;;;;;;2.60;99.90;;;;;;5055384;28;20028;-77
2022/11/19 09:50:14;;;;;;;;;;;2.60;99.90;;;;;;5040908;28;19929;-79
2022/11/19 09:52:46;;;;;;;;;;;2.60;99.90;;;;;;5050878;28;19928;-76
2022/11/19 09:55:16;;;;;;;;;;;2.70;99.90;;;;;;5045531;28;19929;-76
2022/11/19 09:57:49;;;;;;;;;;;2.70;99.90;;;;;;5068432;28;19952;-77
2022/11/19 10:00:19;;;;;;;;;;;2.70;99.90;;;;;;5061072;28;19929;-76
2022/11/19 10:02:47;;;;;;;;;;;2.70;99.90;;;;;;5062316;28;19928;-76
2022/11/19 10:05:15;;;;;;;;;;;2.80;99.90;;;;;;5047306;28;19933;-77
2022/11/19 10:07:45;;;;;;;;;;;2.80;99.90;;;;;;5047222;28;19928;-77
2022/11/19 10:10:19;;;;;;;;;;;2.70;99.90;;;;;;5044344;28;19925;-77
2022/11/19 10:13:11;;;;;;;;;;;2.50;99.90;;;;;;5054622;28;19924;-77
2022/11/19 10:15:44;;;;;;;;;;;2.50;99.90;;;;;;5037076;28;19925;-77
2022/11/19 10:18:16;;;;;;;;;;;2.50;99.90;;;;;;5054015;28;20680;-77
2022/11/19 10:20:58;;;;;;;;;;;2.50;99.90;;;;;;5051731;28;20273;-77
2022/11/19 10:23:31;;;;;;;;;;;2.50;99.90;;;;;;5053888;28;20283;-77
2022/11/19 10:26:01;;;;;;;;;;;2.40;99.90;;;;;;5046600;28;19929;-76
2022/11/19 10:28:30;;;;;;;;;;;2.50;99.90;;;;;;5047945;28;19970;-78
2022/11/19 10:31:06;;;;;;;;;;;2.50;99.90;;;;;;5049805;28;19931;-77
2022/11/19 10:33:35;;;;;;;;;;;2.50;99.90;;;;;;5053762;28;19924;-77
2022/11/19 10:36:04;;;;;;;;;;;2.50;99.90;;;;;;5043025;28;19947;-77
2022/11/19 10:38:33;;;;;;;;;;;2.50;99.90;;;;;;5055609;28;20612;-78
2022/11/19 10:41:05;;;;;;;;;;;2.60;99.90;;;;;;5055160;28;19925;-76
2022/11/19 10:43:36;;;;;;;;;;;2.70;99.90;;;;;;5053545;28;20400;-76
2022/11/19 10:46:06;;;;;;;;;;;2.80;99.90;;;;;;5058498;28;20023;-77
2022/11/19 10:48:37;;;;;;;;;;;2.90;99.90;;;;;;5046461;28;19967;-76
2022/11/19 10:51:09;;;;;;;;;;;3.00;99.90;;;;;;5053500;28;19925;-77
2022/11/19 10:53:38;;;;;;;;;;;2.90;99.90;;;;;;5066028;28;20312;-76
2022/11/19 10:56:06;;;;;;;;;;;3.10;99.90;;;;;;5046139;28;19929;-77
2022/11/19 10:58:36;;;;;;;;;;;3.00;99.90;;;;;;5047316;28;19924;-76
2022/11/19 11:01:11;;;;;;;;;;;3.10;99.90;;;;;;5041617;28;19926;-76
2022/11/19 11:03:43;;;;;;;;;;;3.20;99.90;;;;;;5045367;28;19924;-78
2022/11/19 11:06:16;;;;;;;;;;;3.20;99.90;;;;;;5053382;28;20380;-78
2022/11/19 11:08:52;;;;;;;;;;;3.10;99.90;;;;;;5068674;28;20322;-78
2022/11/19 11:11:23;;;;;;;;;;;3.20;99.90;;;;;;5052381;28;20323;-77
2022/11/19 11:16:46;;;;;;;;;;;3.30;99.90;;;;;;5055376;28;19920;-78
2022/11/19 11:19:18;;;;;;;;;;;3.30;99.90;;;;;;5047801;28;19936;-77
2022/11/19 11:22:03;;;;;;;;;;;3.30;99.90;;;;;;5059727;28;19930;-78
2022/11/19 11:24:38;;;;;;;;;;;3.30;99.90;;;;;;5039626;28;19976;-78
2022/11/19 11:27:25;;;;;;;;;;;3.40;99.90;;;;;;5045048;28;19933;-78
2022/11/19 11:30:23;;;;;;;;;;;3.60;99.90;;;;;;5038954;28;19936;-77
2022/11/19 11:32:51;;;;;;;;;;;3.80;99.90;;;;;;4992950;28;20333;-77
2022/11/19 11:35:29;;;;;;;;;;;3.80;99.90;;;;;;5027739;28;19925;-77
2022/11/19 11:38:00;;;;;;;;;;;4.00;99.90;;;;;;5075524;28;19943;-77
2022/11/19 11:40:35;;;;;;;;;;;4.40;99.90;;;;;;5053706;28;19953;-79
2022/11/19 11:43:03;;;;;;;;;;;4.40;99.90;;;;;;5042938;28;19932;-78
2022/11/19 11:45:31;;;;;;;;;;;4.50;99.90;;;;;;5054044;28;20016;-78
2022/11/19 11:48:05;;;;;;;;;;;4.50;99.90;;;;;;5046112;28;19960;-78
2022/11/19 11:50:35;;;;;;;;;;;4.50;99.90;;;;;;5044506;28;19929;-78
2022/11/19 11:53:07;;;;;;;;;;;4.40;99.90;;;;;;5047060;28;19929;-82
2022/11/19 11:55:34;;;;;;;;;;;4.20;99.90;;;;;;5043152;28;19931;-79
2022/11/19 11:58:02;;;;;;;;;;;4.20;99.90;;;;;;5049911;28;20020;-79
2022/11/19 12:00:31;;;;;;;;;;;4.20;99.90;;;;;;5055877;28;19990;-79
2022/11/19 12:03:03;;;;;;;;;;;4.20;99.90;;;;;;5050878;28;20372;-81
2022/11/19 12:05:36;;;;;;;;;;;4.20;99.90;;;;;;5043375;28;19998;-80
2022/11/19 12:08:04;;;;;;;;;;;4.40;99.90;;;;;;5054066;28;20400;-79
2022/11/19 12:10:38;;;;;;;;;;;4.50;99.90;;;;;;5046565;28;19932;-79
2022/11/19 12:13:16;;;;;;;;;;;4.50;99.90;;;;;;5052024;28;19948;-81
2022/11/19 12:15:48;;;;;;;;;;;4.40;99.90;;;;;;5045202;28;20274;-78
2022/11/19 12:18:25;;;;;;;;;;;4.50;99.90;;;;;;5055933;28;19977;-78
2022/11/19 12:20:57;;;;;;;;;;;4.50;99.90;;;;;;5046486;28;19978;-79
2022/11/19 12:23:43;;;;;;;;;;;4.60;99.90;;;;;;5047335;28;20372;-78
2022/11/19 12:26:17;;;;;;;;;;;4.60;99.90;;;;;;5046520;28;19975;-78
2022/11/19 12:28:55;;;;;;;;;;;4.60;99.90;;;;;;5054807;28;19925;-78
2022/11/19 12:31:27;;;;;;;;;;;4.60;99.90;;;;;;5048450;28;19936;-78
2022/11/19 12:34:08;;;;;;;;;;;4.60;99.90;;;;;;5051089;28;20392;-78
2022/11/19 12:36:40;;;;;;;;;;;4.30;99.90;;;;;;5037521;28;20557;-79
2022/11/19 12:39:16;;;;;;;;;;;4.70;99.90;;;;;;5037269;28;19937;-79
2022/11/19 12:41:53;;;;;;;;;;;4.10;99.90;;;;;;5057842;28;19929;-79
2022/11/19 12:44:27;;;;;;;;;;;4.90;99.90;;;;;;5060601;28;19924;-79
2022/11/19 12:46:57;;;;;;;;;;;5.00;99.90;;;;;;5053619;28;20249;-79
2022/11/19 12:49:36;;;;;;;;;;;5.00;99.90;;;;;;5047345;28;19925;-77
2022/11/19 12:52:09;;;;;;;;;;;4.90;99.90;;;;;;5036542;28;20310;-80
2022/11/19 12:54:47;;;;;;;;;;;4.90;99.90;;;;;;5033930;28;19979;-81
2022/11/19 12:57:27;;;;;;;;;;;4.80;99.90;;;;;;5042401;28;19943;-82
2022/11/19 13:00:21;;;;;;;;;;;4.60;99.90;;;;;;5043646;28;19936;-79
2022/11/19 13:02:55;;;;;;;;;;;4.70;99.90;;;;;;5056933;28;20002;-78
2022/11/19 13:05:27;;;;;;;;;;;4.80;99.90;;;;;;5050402;28;19925;-79
2022/11/19 13:12:00;;;;;;;;;;;5.20;99.90;;;;;;5047266;28;19984;-78
2022/11/19 13:14:35;;;;;;;;;;;5.10;99.90;;;;;;5032506;28;19975;-77
2022/11/19 13:17:04;;;;;;;;;;;5.20;99.90;;;;;;5045102;28;19936;-79
2022/11/19 13:19:33;;;;;;;;;;;5.30;99.90;;;;;;5034945;28;19929;-81
2022/11/19 13:22:05;;;;;;;;;;;5.50;99.90;;;;;;5049639;28;19925;-83
2022/11/19 13:24:34;;;;;;;;;;;5.50;99.90;;;;;;5044841;28;19925;-79
2022/11/19 13:27:03;;;;;;;;;;;5.50;99.90;;;;;;5044924;28;19971;-79
2022/11/19 13:29:36;;;;;;;;;;;5.50;99.90;;;;;;5039090;28;19929;-81
2022/11/19 13:32:09;;;;;;;;;;;5.50;99.90;;;;;;5040572;28;19933;-80
2022/11/19 13:34:40;;;;;;;;;;;5.50;99.90;;;;;;5052497;28;20043;-81
2022/11/19 13:37:14;;;;;;;;;;;5.50;99.90;;;;;;5054197;28;20051;-81
2022/11/19 13:39:44;;;;;;;;;;;5.40;99.90;;;;;;5056398;28;19951;-81
2022/11/19 13:44:55;;;;;;;;;;;5.30;99.90;;;;;;5040055;28;19927;-81
2022/11/19 13:47:24;;;;;;;;;;;5.20;99.90;;;;;;5043802;28;19936;-80
2022/11/19 13:49:53;;;;;;;;;;;5.20;99.90;;;;;;5048015;28;19972;-79
2022/11/19 13:52:26;;;;;;;;;;;5.20;99.90;;;;;;5048092;28;19990;-80
2022/11/19 13:54:54;;;;;;;;;;;5.20;99.90;;;;;;5038529;28;20024;-78
2022/11/19 13:57:30;;;;;;;;;;;5.20;99.90;;;;;;5057641;28;19925;-78
2022/11/19 14:00:00;;;;;;;;;;;5.30;99.90;;;;;;5045333;28;19925;-84
2022/11/19 14:02:38;;;;;;;;;;;5.20;99.90;;;;;;5038733;28;20009;-79
2022/11/19 14:05:14;;;;;;;;;;;5.20;99.90;;;;;;5042799;28;19936;-79
2022/11/19 14:07:49;;;;;;;;;;;5.10;99.90;;;;;;5042324;28;20952;-79
2022/11/19 14:10:16;;;;;;;;;;;;;;;;;;5043758;28;19987;-78
2022/11/19 14:13:01;;;;;;;;;;;5.10;99.90;;;;;;5044418;28;19933;-78
2022/11/19 14:27:21;;;;;;;;;;;5.20;99.90;;;;;;5047949;28;20756;-79
2022/11/19 14:30:00;;;;;;;;;;;5.10;99.90;;;;;;5052553;28;19929;-83
2022/11/19 14:32:34;;;;;;;;;;;5.00;99.90;;;;;;5054567;28;20432;-78
2022/11/19 14:35:28;;;;;;;;;;;5.00;99.90;;;;;;5042825;28;19925;-80
2022/11/19 14:37:56;;;;;;;;;;;5.00;99.90;;;;;;5045873;28;19933;-79
2022/11/19 14:40:25;;;;;;;;;;;4.90;99.90;;;;;;5038965;28;19928;-78
2022/11/19 14:46:16;;;;;;;;;;;4.80;99.90;;;;;;5038025;28;20308;-79
2022/11/19 14:48:49;;;;;;;;;;;4.80;99.90;;;;;;5048705;28;19996;-81
2022/11/19 14:51:19;;;;;;;;;;;4.90;99.90;;;;;;5047602;28;20495;-80
2022/11/19 14:53:51;;;;;;;;;;;4.90;99.90;;;;;;5038506;28;19992;-79
2022/11/19 14:56:22;;;;;;;;;;;4.90;99.90;;;;;;5058448;28;19929;-80
2022/11/19 14:58:51;;;;;;;;;;;4.90;99.90;;;;;;5047756;28;19981;-82
2022/11/19 15:01:22;;;;;;;;;;;4.80;99.90;;;;;;5047896;28;19971;-79
2022/11/19 15:03:52;;;;;;;;;;;4.90;99.90;;;;;;5056117;28;19929;-80
2022/11/19 15:06:20;;;;;;;;;;;4.70;99.90;;;;;;5056369;28;19924;-80
2022/11/19 15:08:48;;;;;;;;;;;4.70;99.90;;;;;;5051032;28;20008;-78
2022/11/19 15:11:15;;;;;;;;;;;4.60;99.90;;;;;;5037245;28;20063;-78
2022/11/19 15:13:43;;;;;;;;;;;4.50;99.90;;;;;;5046428;28;19929;-78
2022/11/19 15:16:11;;;;;;;;;;;4.50;99.90;;;;;;5037502;28;20467;-79
2022/11/19 15:18:53;;;;;;;;;;;4.40;99.90;;;;;;5036293;28;19925;-79
2022/11/19 15:21:27;;;;;;;;;;;4.40;99.90;;;;;;5031792;28;19933;-79
2022/11/19 15:24:00;;;;;;;;;;;4.30;99.90;;;;;;5032493;28;20396;-79
2022/11/19 15:26:33;;;;;;;;;;;4.20;99.90;;;;;;5036719;28;19983;-78
2022/11/19 15:29:05;;;;;;;;;;;4.20;99.90;;;;;;5034601;28;19929;-79
2022/11/19 15:31:44;;;;;;;;;;;4.20;99.90;;;;;;5032363;28;19933;-79
2022/11/19 15:34:30;;;;;;;;;;;4.10;99.90;;;;;;5032566;28;19925;-79
2022/11/19 15:36:59;;;;;;;;;;;4.10;99.90;;;;;;5030739;28;20301;-78
2022/11/19 15:39:29;;;;;;;;;;;4.10;99.90;;;;;;5029574;28;20045;-78
2022/11/19 15:42:01;;;;;;;;;;;4.00;99.90;;;;;;5032826;28;19933;-78
2022/11/19 15:44:29;;;;;;;;;;;4.00;99.90;;;;;;5045341;28;19933;-79
2022/11/19 15:46:58;;;;;;;;;;;4.00;99.90;;;;;;5031833;28;19976;-78
2022/11/19 15:49:26;;;;;;;;;;;3.90;99.90;;;;;;5052667;28;19925;-78